Time;durP1;ratioP1;P1;durP2;ratioP2;P2;SDS_P1;SDS_P2;PMS_P1;PMS_P2;Temp;Humidity;BMP_temperature;BMP_pressure;BME280_temperature;BME280_humidity;BME280_pressure;Samples;Min_cycle;Max_cycle;Signal;HPM_P1;HPM_P2
2021/07/12 00:01:57;;;;;;;6.70;5.20;;;;;;;17.93;90.12;99072.47;5114989;28;20567;-74
2021/07/12 00:04:24;;;;;;;7.07;5.20;;;;;;;17.90;90.33;99080.94;5106691;28;20582;-73
2021/07/12 00:06:50;;;;;;;5.60;5.00;;;;;;;18.07;89.26;99076.59;5114850;28;20198;-74
2021/07/12 00:09:17;;;;;;;6.00;5.25;;;;;;;18.06;88.96;99075.72;5114561;28;20183;-75
2021/07/12 00:11:44;;;;;;;8.20;5.82;;;;;;;18.07;88.88;99080.16;5114927;28;20287;-75
2021/07/12 00:14:11;;;;;;;5.90;5.30;;;;;;;18.10;88.94;99079.88;5114286;28;20185;-75
2021/07/12 00:16:37;;;;;;;5.78;5.15;;;;;;;18.15;88.53;99073.97;5114843;28;20293;-74
2021/07/12 00:19:06;;;;;;;6.10;4.82;;;;;;;18.20;88.20;99082.53;5114566;28;20292;-74
2021/07/12 00:21:33;;;;;;;6.30;5.35;;;;;;;18.07;88.59;99063.81;5114269;28;20192;-74
2021/07/12 00:24:00;;;;;;;12.30;5.97;;;;;;;18.01;88.89;99056.25;5114406;28;20198;-74
2021/07/12 00:26:26;;;;;;;12.93;10.00;;;;;;;18.08;88.95;99053.78;5111008;28;20637;-74
2021/07/12 00:28:53;;;;;;;6.65;5.95;;;;;;;18.15;88.43;99054.03;5114363;28;20193;-75
2021/07/12 00:31:20;;;;;;;6.00;5.40;;;;;;;18.17;88.22;99039.25;5114183;28;20615;-74
2021/07/12 00:33:47;;;;;;;6.10;5.10;;;;;;;18.11;88.38;99043.47;5114634;28;20208;-74
2021/07/12 00:36:15;;;;;;;7.68;5.50;;;;;;;18.05;88.54;99046.78;5114257;28;20702;-74
2021/07/12 00:38:42;;;;;;;15.75;12.68;;;;;;;18.07;88.74;99038.47;5114045;28;20259;-75
2021/07/12 00:41:08;;;;;;;9.55;8.55;;;;;;;18.06;88.24;99043.03;5114340;28;20554;-74
2021/07/12 00:43:35;;;;;;;6.72;5.78;;;;;;;18.03;88.45;99043.34;5113786;28;20273;-75
2021/07/12 00:46:02;;;;;;;6.80;6.20;;;;;;;18.00;88.36;99040.94;5114075;28;20540;-74
2021/07/12 00:48:33;;;;;;;7.90;5.50;;;;;;;17.74;89.63;99037.97;5114070;28;20186;-74
2021/07/12 00:50:59;;;;;;;8.75;6.57;;;;;;;17.69;90.35;99040.28;5114250;28;20265;-74
2021/07/12 00:53:28;;;;;;;7.22;6.05;;;;;;;17.90;89.53;99031.94;5114060;28;20195;-74
2021/07/12 00:55:54;;;;;;;6.50;5.90;;;;;;;17.97;88.97;99038.47;5114161;28;20612;-75
2021/07/12 00:58:23;;;;;;;7.07;6.50;;;;;;;17.91;88.79;99028.22;5113319;28;20218;-74
2021/07/12 01:00:52;;;;;;;6.50;6.00;;;;;;;17.73;89.79;99036.28;5112774;28;20630;-74
2021/07/12 01:03:20;;;;;;;6.50;5.97;;;;;;;17.81;89.65;99028.22;5113584;28;20232;-74
2021/07/12 01:05:47;;;;;;;7.28;5.90;;;;;;;17.55;91.09;99025.28;5113326;28;20190;-74
2021/07/12 01:08:14;;;;;;;9.75;6.50;;;;;;;17.53;91.55;99027.31;5113868;28;20186;-74
2021/07/12 01:10:46;;;;;;;6.78;6.03;;;;;;;17.29;92.91;99038.66;5113568;28;20188;-74
2021/07/12 01:13:27;;;;;;;6.28;5.78;;;;;;;17.55;91.92;99028.00;5113450;28;20276;-74
2021/07/12 01:16:01;;;;;;;6.40;5.80;;;;;;;17.66;90.33;99027.84;5113600;28;20220;-74
2021/07/12 01:18:32;;;;;;;7.75;5.60;;;;;;;17.58;90.64;99038.59;5113652;28;20214;-73
2021/07/12 01:21:41;;;;;;;8.13;6.25;;;;;;;17.61;90.45;99032.84;5113596;28;20571;-74
2021/07/12 01:24:42;;;;;;;6.07;5.57;;;;;;;17.36;92.30;99041.66;5105626;28;20271;-74
2021/07/12 01:27:54;;;;;;;8.98;6.57;;;;;;;17.46;91.63;99039.78;5104697;28;20198;-74
2021/07/12 01:30:24;;;;;;;6.50;5.90;;;;;;;17.40;92.14;99035.78;5113163;28;20187;-74
2021/07/12 01:33:12;;;;;;;6.90;6.20;;;;;;;17.43;91.92;99024.59;5113000;28;20215;-75
2021/07/12 01:35:53;;;;;;;6.65;5.70;;;;;;;17.27;92.55;99030.63;5108052;28;20211;-74
2021/07/12 01:38:33;;;;;;;7.20;6.57;;;;;;;17.13;93.88;99030.25;5104853;28;20676;-74
2021/07/12 01:41:06;;;;;;;8.10;6.60;;;;;;;17.00;95.05;99034.09;5113292;28;20194;-74
2021/07/12 01:43:38;;;;;;;10.13;6.80;;;;;;;16.98;95.29;99036.13;5106069;28;20184;-75
2021/07/12 01:46:09;;;;;;;6.68;6.07;;;;;;;16.97;95.46;99031.69;5113183;28;20196;-74
2021/07/12 01:48:50;;;;;;;6.47;5.88;;;;;;;17.04;94.64;99034.69;5113014;28;20274;-75
2021/07/12 01:51:22;;;;;;;7.13;6.15;;;;;;;17.13;94.48;99033.81;5113011;28;20194;-75
2021/07/12 01:53:58;;;;;;;6.75;6.20;;;;;;;16.92;94.78;99024.97;5113035;28;20548;-75
2021/07/12 01:56:31;;;;;;;6.15;5.65;;;;;;;16.79;96.37;99026.09;5112349;28;20194;-74
2021/07/12 01:59:04;;;;;;;7.22;6.20;;;;;;;16.78;96.72;99015.31;5112931;28;20263;-74
2021/07/12 02:01:33;;;;;;;7.45;6.70;;;;;;;16.74;97.47;99014.75;5112554;28;20521;-74
2021/07/12 02:04:03;;;;;;;7.82;6.13;;;;;;;16.64;97.90;99000.28;5112369;28;20222;-74
2021/07/12 02:06:34;;;;;;;7.38;6.20;;;;;;;16.85;96.43;99001.06;5112478;28;20536;-73
2021/07/12 02:09:01;;;;;;;6.78;6.18;;;;;;;17.10;94.74;98987.88;5112228;28;20184;-74
2021/07/12 02:11:28;;;;;;;6.40;5.80;;;;;;;17.13;93.74;98990.28;5112317;28;20195;-74
2021/07/12 02:13:55;;;;;;;6.90;6.03;;;;;;;17.13;93.67;98986.72;5112632;28;20571;-74
2021/07/12 02:16:24;;;;;;;6.95;6.25;;;;;;;17.02;93.99;98990.44;5112453;28;20205;-74
2021/07/12 02:18:51;;;;;;;6.40;5.80;;;;;;;17.04;94.51;98986.56;5112256;28;20199;-74
2021/07/12 02:21:20;;;;;;;7.85;6.05;;;;;;;17.12;93.80;98990.44;5112595;28;20198;-74
2021/07/12 02:23:48;;;;;;;8.20;6.38;;;;;;;17.02;94.11;98998.59;5112205;28;20201;-74
2021/07/12 02:26:16;;;;;;;8.73;6.50;;;;;;;16.93;94.79;98994.88;5112290;28;20518;-73
2021/07/12 02:28:46;;;;;;;6.65;5.60;;;;;;;17.07;94.27;99007.19;5112112;28;20283;-74
2021/07/12 02:31:15;;;;;;;8.25;5.85;;;;;;;16.94;94.66;99006.66;5104109;28;20188;-74
2021/07/12 02:33:43;;;;;;;5.72;5.10;;;;;;;17.03;94.26;99009.34;5112349;28;20279;-74
2021/07/12 02:36:10;;;;;;;9.40;6.95;;;;;;;17.13;93.17;99003.03;5111988;28;20691;-73
2021/07/12 02:38:40;;;;;;;6.57;5.97;;;;;;;16.98;93.99;98989.91;5112104;28;20215;-75
2021/07/12 02:41:07;;;;;;;6.10;5.57;;;;;;;16.76;96.05;98988.31;5112119;28;20195;-74
2021/07/12 02:43:36;;;;;;;6.80;6.10;;;;;;;16.66;96.79;98987.44;5112113;28;20545;-74
2021/07/12 02:46:05;;;;;;;6.85;5.55;;;;;;;16.70;96.99;98990.72;5112150;28;20605;-75
2021/07/12 02:48:32;;;;;;;7.68;6.88;;;;;;;16.62;97.11;98983.28;5103907;28;20195;-73
2021/07/12 02:51:04;;;;;;;7.82;6.22;;;;;;;16.63;97.96;98974.13;5111863;28;20198;-74
2021/07/12 02:53:33;;;;;;;7.63;6.82;;;;;;;16.69;97.29;98981.72;5111421;28;20187;-73
2021/07/12 02:56:01;;;;;;;6.03;5.40;;;;;;;16.80;96.46;98975.28;5112107;28;20190;-74
2021/07/12 02:58:28;;;;;;;7.10;6.30;;;;;;;16.61;97.64;98967.97;5110860;28;20209;-73
2021/07/12 03:00:55;;;;;;;6.93;6.18;;;;;;;16.64;97.78;98973.13;5111756;28;20639;-74
2021/07/12 03:03:21;;;;;;;5.72;5.22;;;;;;;16.77;96.82;98972.84;5111777;28;20723;-73
2021/07/12 03:05:51;;;;;;;7.15;6.43;;;;;;;16.78;96.36;98972.72;5111745;28;20190;-74
2021/07/12 03:08:23;;;;;;;6.97;6.15;;;;;;;16.78;96.21;98977.25;5112130;28;20180;-73
2021/07/12 03:10:52;;;;;;;6.45;5.85;;;;;;;16.69;96.34;98973.56;5111302;28;20279;-74
2021/07/12 03:13:30;;;;;;;7.65;5.85;;;;;;;16.66;96.64;98965.69;5111890;28;20530;-74
2021/07/12 03:15:58;;;;;;;6.15;5.65;;;;;;;16.51;97.91;98962.56;5103545;28;20273;-74
2021/07/12 03:18:28;;;;;;;6.85;6.00;;;;;;;16.43;99.07;98949.66;5111309;28;20207;-74
2021/07/12 03:20:59;;;;;;;6.32;5.70;;;;;;;16.43;99.27;98949.66;5112128;28;20846;-73
2021/07/12 03:23:28;;;;;;;6.93;6.32;;;;;;;16.45;98.91;98949.53;5113085;28;20209;-74
2021/07/12 03:25:59;;;;;;;6.78;6.18;;;;;;;16.46;99.35;98948.50;5115447;28;20190;-75
2021/07/12 03:28:28;;;;;;;8.30;6.32;;;;;;;16.58;98.12;98938.38;5115916;28;20621;-74
2021/07/12 03:30:55;;;;;;;6.88;5.93;;;;;;;16.57;98.07;98940.22;5115463;28;20192;-73
2021/07/12 03:33:23;;;;;;;8.32;6.63;;;;;;;16.56;97.75;98937.66;5115383;28;20190;-74
2021/07/12 03:35:52;;;;;;;7.60;6.90;;;;;;;16.63;97.59;98941.53;5115219;28;20179;-74
2021/07/12 03:38:21;;;;;;;7.20;6.10;;;;;;;16.66;97.30;98941.22;5107482;28;20210;-74
2021/07/12 03:40:49;;;;;;;6.60;5.95;;;;;;;16.85;95.32;98941.25;5115604;28;20274;-74
2021/07/12 03:43:17;;;;;;;7.70;6.00;;;;;;;16.86;93.94;98942.94;5115430;28;20179;-74
2021/07/12 03:45:53;;;;;;;6.47;5.93;;;;;;;16.66;95.57;98933.94;5115155;28;20192;-74
2021/07/12 03:48:20;;;;;;;6.25;5.75;;;;;;;16.73;95.75;98925.19;5115079;28;20183;-74
2021/07/12 03:50:46;;;;;;;7.03;6.32;;;;;;;16.75;95.26;98906.88;5115671;28;20615;-74
2021/07/12 03:53:13;;;;;;;7.00;6.40;;;;;;;16.69;95.58;98902.91;5115103;28;20203;-74
2021/07/12 03:55:39;;;;;;;7.47;6.03;;;;;;;16.73;95.08;98893.44;5115314;28;20184;-74
2021/07/12 03:58:06;;;;;;;7.05;6.18;;;;;;;16.74;95.14;98895.16;5114936;28;20198;-74
2021/07/12 04:00:33;;;;;;;6.85;5.93;;;;;;;16.96;94.05;98895.84;5114999;28;20290;-74
2021/07/12 04:03:01;;;;;;;8.00;5.20;;;;;;;16.99;93.15;98898.28;5114732;28;20227;-73
2021/07/12 04:05:28;;;;;;;7.63;5.82;;;;;;;17.12;92.07;98896.09;5114583;28;20228;-73
2021/07/12 04:07:56;;;;;;;8.30;5.85;;;;;;;17.10;91.69;98895.41;5114793;28;20187;-74
2021/07/12 04:10:23;;;;;;;5.40;4.90;;;;;;;17.51;88.71;98890.50;5114750;28;20616;-74
2021/07/12 04:12:49;;;;;;;9.85;6.07;;;;;;;17.30;89.68;98883.44;5115005;28;20196;-74
2021/07/12 04:15:17;;;;;;;6.30;5.35;;;;;;;17.42;89.17;98875.94;5114734;28;20193;-75
2021/07/12 04:17:45;;;;;;;6.10;5.05;;;;;;;17.41;88.94;98878.78;5114858;28;20189;-75
2021/07/12 04:20:14;;;;;;;7.47;5.43;;;;;;;17.56;87.95;98877.28;5114835;28;20295;-74
2021/07/12 04:22:41;;;;;;;7.72;5.22;;;;;;;17.49;87.88;98866.16;5114173;28;20223;-74
2021/07/12 04:25:09;;;;;;;5.38;4.85;;;;;;;17.41;88.27;98862.47;5114818;28;20192;-74
2021/07/12 04:27:36;;;;;;;8.55;6.15;;;;;;;17.55;87.76;98867.44;5114328;28;20573;-75
2021/07/12 04:30:04;;;;;;;5.70;5.18;;;;;;;17.55;87.15;98870.16;5114624;28;20195;-74
2021/07/12 04:32:31;;;;;;;5.25;4.85;;;;;;;17.55;86.91;98869.28;5114437;28;20191;-75
2021/07/12 04:34:57;;;;;;;6.88;5.35;;;;;;;17.43;87.70;98864.03;5113932;28;20183;-75
2021/07/12 04:37:25;;;;;;;5.95;5.45;;;;;;;17.41;88.20;98862.47;5113784;28;20196;-75
2021/07/12 04:39:52;;;;;;;6.35;5.35;;;;;;;17.46;88.16;98861.03;5114079;28;20208;-74
2021/07/12 04:42:18;;;;;;;6.13;5.45;;;;;;;17.66;86.68;98856.34;5114309;28;20546;-74
2021/07/12 04:44:45;;;;;;;7.28;5.35;;;;;;;17.67;86.18;98859.91;5113545;28;20192;-74
2021/07/12 04:47:12;;;;;;;6.07;5.10;;;;;;;17.60;86.71;98856.09;5114317;28;20623;-74
2021/07/12 04:49:38;;;;;;;6.05;5.43;;;;;;;17.56;86.56;98858.25;5114023;28;20642;-74
2021/07/12 04:52:06;;;;;;;4.93;4.47;;;;;;;17.68;85.48;98865.22;5113692;28;20288;-75
2021/07/12 04:54:34;;;;;;;4.85;4.35;;;;;;;17.87;84.50;98879.75;5113623;28;20549;-74
2021/07/12 04:57:00;;;;;;;5.65;5.15;;;;;;;17.97;83.68;98876.94;5113831;28;20202;-74
2021/07/12 04:59:28;;;;;;;4.80;4.30;;;;;;;17.70;83.94;98901.31;5113786;28;20223;-74
2021/07/12 05:01:55;;;;;;;6.28;5.32;;;;;;;17.46;85.65;98895.56;5113648;28;20193;-74
2021/07/12 05:04:22;;;;;;;6.50;5.53;;;;;;;17.57;85.99;98889.03;5113266;28;20238;-74
2021/07/12 05:06:48;;;;;;;7.00;5.38;;;;;;;17.56;86.03;98888.19;5113381;28;20629;-74
2021/07/12 05:09:15;;;;;;;5.82;5.25;;;;;;;17.61;85.72;98885.84;5113685;28;20189;-74
2021/07/12 05:11:43;;;;;;;5.05;4.65;;;;;;;17.61;85.93;98866.81;5113432;28;20207;-74
2021/07/12 05:14:10;;;;;;;5.55;5.05;;;;;;;17.55;85.89;98870.16;5113502;28;20202;-74
2021/07/12 05:16:37;;;;;;;5.95;5.45;;;;;;;17.87;84.97;98879.75;5113417;28;20543;-75
2021/07/12 05:19:04;;;;;;;5.55;4.80;;;;;;;18.15;82.93;98890.59;5112768;28;20290;-74
2021/07/12 05:21:30;;;;;;;6.28;4.75;;;;;;;17.93;83.50;98900.88;5113402;28;20271;-74
2021/07/12 05:23:57;;;;;;;6.75;6.15;;;;;;;18.10;82.98;98905.50;5113042;28;20615;-75
2021/07/12 05:26:24;;;;;;;6.00;4.93;;;;;;;18.27;81.98;98895.66;5112959;28;20201;-74
2021/07/12 05:28:52;;;;;;;5.32;4.82;;;;;;;18.46;80.31;98901.94;5112477;28;20212;-74
2021/07/12 05:31:19;;;;;;;4.53;4.13;;;;;;;18.20;81.13;98889.09;5112825;28;20190;-74
2021/07/12 05:33:46;;;;;;;5.22;4.65;;;;;;;17.96;82.76;98878.81;5113544;28;20600;-74
2021/07/12 05:36:12;;;;;;;5.85;5.35;;;;;;;18.02;83.17;98878.22;5113262;28;20613;-75
2021/07/12 05:38:39;;;;;;;6.00;5.03;;;;;;;17.90;83.60;98877.53;5112568;28;20190;-75
2021/07/12 05:41:06;;;;;;;6.15;5.45;;;;;;;18.16;82.90;98878.66;5113255;28;20849;-75
2021/07/12 05:43:32;;;;;;;6.05;5.05;;;;;;;18.18;82.61;98880.25;5113437;28;20182;-75
2021/07/12 05:46:01;;;;;;;4.82;4.43;;;;;;;18.41;81.10;98882.50;5112740;28;20292;-76
2021/07/12 05:48:28;;;;;;;6.03;5.27;;;;;;;18.65;80.07;98884.56;5111201;28;20205;-76
2021/07/12 05:50:54;;;;;;;6.65;4.68;;;;;;;18.66;79.24;98878.94;5112751;28;20788;-75
2021/07/12 05:53:21;;;;;;;9.00;6.00;;;;;;;18.64;79.15;98874.69;5112809;28;20181;-74
2021/07/12 05:55:47;;;;;;;6.00;4.95;;;;;;;18.57;79.76;98885.34;5112611;28;20206;-74
2021/07/12 05:58:14;;;;;;;4.43;4.00;;;;;;;18.53;79.68;98870.31;5113279;28;20617;-75
2021/07/12 06:00:41;;;;;;;6.30;4.03;;;;;;;18.55;79.90;98850.06;5112223;28;20217;-75
2021/07/12 06:03:09;;;;;;;5.15;4.10;;;;;;;18.43;80.66;98854.06;5112480;28;20244;-74
2021/07/12 06:05:36;;;;;;;5.88;4.68;;;;;;;18.42;80.50;98840.59;5112734;28;20605;-75
2021/07/12 06:08:03;;;;;;;4.22;3.83;;;;;;;18.56;79.62;98834.56;5112492;28;20667;-74
2021/07/12 06:10:29;;;;;;;5.50;4.97;;;;;;;18.60;80.01;98826.94;5111832;28;20198;-74
2021/07/12 06:12:56;;;;;;;4.47;3.75;;;;;;;18.70;79.54;98833.13;5112107;28;20190;-74
2021/07/12 06:15:23;;;;;;;5.35;4.03;;;;;;;18.80;78.84;98831.19;5112002;28;20286;-75
2021/07/12 06:17:51;;;;;;;5.32;4.55;;;;;;;18.65;79.24;98846.38;5111793;28;20190;-75
2021/07/12 06:20:19;;;;;;;5.13;4.72;;;;;;;18.51;79.72;98856.84;5111600;28;20596;-74
2021/07/12 06:22:47;;;;;;;5.25;4.43;;;;;;;18.79;78.41;98853.16;5111804;28;20194;-74
2021/07/12 06:25:15;;;;;;;5.47;4.18;;;;;;;18.73;79.10;98858.22;5111441;28;20189;-74
2021/07/12 06:27:45;;;;;;;5.68;4.53;;;;;;;18.92;77.72;98859.06;5111869;28;20247;-73
2021/07/12 06:30:13;;;;;;;5.78;4.50;;;;;;;18.65;79.13;98851.84;5111764;28;20183;-74
2021/07/12 06:32:40;;;;;;;5.25;3.67;;;;;;;18.55;79.80;98850.06;5111721;28;20273;-75
2021/07/12 06:35:09;;;;;;;4.65;3.88;;;;;;;18.79;79.15;98851.31;5103889;28;20223;-75
2021/07/12 06:37:37;;;;;;;5.18;4.50;;;;;;;19.06;78.25;98830.31;5112001;28;20569;-75
2021/07/12 06:40:04;;;;;;;6.55;4.43;;;;;;;19.18;77.29;98831.75;5111736;28;20207;-74
2021/07/12 06:42:31;;;;;;;5.82;4.10;;;;;;;19.11;77.11;98819.78;5111552;28;20195;-75
2021/07/12 06:44:58;;;;;;;4.00;3.70;;;;;;;19.23;77.19;98817.63;5111605;28;20194;-75
2021/07/12 06:47:26;;;;;;;4.90;4.30;;;;;;;19.36;76.48;98816.16;5112153;28;20195;-74
2021/07/12 06:49:52;;;;;;;5.63;4.68;;;;;;;19.74;74.85;98810.31;5111955;28;20587;-75
2021/07/12 06:52:19;;;;;;;4.85;4.35;;;;;;;19.79;73.96;98813.41;5112107;28;20310;-74
2021/07/12 06:54:47;;;;;;;4.18;3.78;;;;;;;19.86;73.92;98805.41;5111937;28;21056;-75
2021/07/12 06:57:15;;;;;;;4.90;4.05;;;;;;;19.84;74.26;98799.25;5110960;28;20191;-74
2021/07/12 06:59:42;;;;;;;4.82;4.32;;;;;;;19.87;74.01;98788.00;5115107;28;20210;-75
2021/07/12 07:02:10;;;;;;;5.05;4.55;;;;;;;19.71;74.59;98784.19;5115712;28;20198;-75
2021/07/12 07:04:37;;;;;;;4.72;4.00;;;;;;;19.51;76.16;98771.81;5115316;28;20775;-76
2021/07/12 07:07:04;;;;;;;4.50;4.03;;;;;;;19.69;75.35;98758.94;5115803;28;20190;-76
2021/07/12 07:09:31;;;;;;;4.50;4.10;;;;;;;20.03;73.49;98763.41;5115390;28;20284;-74
2021/07/12 07:11:59;;;;;;;6.67;4.77;;;;;;;20.45;72.13;98748.72;5115541;28;20202;-74
2021/07/12 07:14:25;;;;;;;4.85;3.92;;;;;;;20.63;71.26;98750.44;5115951;28;20767;-74
2021/07/12 07:16:52;;;;;;;4.50;4.07;;;;;;;20.78;70.02;98754.13;5115579;28;20197;-74
2021/07/12 07:19:19;;;;;;;4.50;4.07;;;;;;;20.79;69.67;98747.66;5115458;28;20461;-74
2021/07/12 07:21:51;;;;;;;5.90;4.70;;;;;;;20.82;69.67;98752.75;5115717;28;20547;-75
2021/07/12 07:24:18;;;;;;;6.07;4.13;;;;;;;20.22;72.40;98747.72;5114995;28;20444;-75
2021/07/12 07:26:44;;;;;;;6.80;4.00;;;;;;;20.26;72.83;98736.28;5115266;28;20515;-74
2021/07/12 07:29:13;;;;;;;6.60;4.13;;;;;;;20.23;72.75;98741.22;5115076;28;20798;-75
2021/07/12 07:31:40;;;;;;;6.73;5.30;;;;;;;20.45;72.01;98742.41;5114810;28;20931;-75
2021/07/12 07:34:07;;;;;;;4.03;3.63;;;;;;;20.42;71.11;98733.50;5115220;28;20448;-74
2021/07/12 07:36:34;;;;;;;6.00;3.90;;;;;;;20.15;72.69;98726.53;5106700;28;20922;-74
2021/07/12 07:39:00;;;;;;;5.07;4.30;;;;;;;20.69;70.62;98716.88;5114841;28;20439;-74
2021/07/12 07:41:27;;;;;;;4.43;4.10;;;;;;;20.76;70.73;98720.66;5115163;28;20467;-75
2021/07/12 07:43:54;;;;;;;4.00;3.67;;;;;;;20.49;71.82;98709.06;5114913;28;20433;-74
2021/07/12 07:46:21;;;;;;;4.63;4.23;;;;;;;20.70;70.75;98691.25;5114600;28;20440;-75
2021/07/12 07:48:48;;;;;;;7.60;5.60;;;;;;;20.99;70.49;98675.06;5114847;28;20429;-74
2021/07/12 07:51:15;;;;;;;5.07;4.40;;;;;;;20.96;70.39;98669.97;5115070;28;20477;-74
2021/07/12 07:53:41;;;;;;;6.97;3.83;;;;;;;21.11;69.76;98670.03;5114574;28;20436;-74
2021/07/12 07:56:08;;;;;;;6.17;4.00;;;;;;;21.06;69.50;98667.00;5114370;28;20433;-74
2021/07/12 07:58:35;;;;;;;5.67;4.20;;;;;;;20.91;71.04;98661.41;5114891;28;20929;-75
2021/07/12 08:01:01;;;;;;;5.77;5.27;;;;;;;20.71;72.29;98643.72;5114657;28;20472;-76
2021/07/12 08:03:29;;;;;;;4.20;3.80;;;;;;;20.87;71.72;98620.91;5114157;28;20670;-75
2021/07/12 08:05:56;;;;;;;4.67;4.27;;;;;;;21.22;70.52;98628.56;5114885;28;20424;-76
2021/07/12 08:08:23;;;;;;;4.70;4.30;;;;;;;21.24;70.13;98632.00;5114837;28;20444;-75
2021/07/12 08:10:49;;;;;;;8.40;4.70;;;;;;;21.23;70.34;98651.31;5113628;28;20441;-76
2021/07/12 08:13:16;;;;;;;4.80;4.40;;;;;;;21.08;70.68;98645.78;5114322;28;20531;-75
2021/07/12 08:15:42;;;;;;;5.60;4.97;;;;;;;21.12;70.74;98638.91;5114438;28;20516;-77
2021/07/12 08:18:11;;;;;;;5.57;4.47;;;;;;;21.19;70.38;98639.06;5114683;28;20434;-76
2021/07/12 08:20:39;;;;;;;4.90;3.73;;;;;;;21.33;69.84;98615.53;5114382;28;20477;-76
2021/07/12 08:23:05;;;;;;;5.50;5.00;;;;;;;21.45;69.37;98619.56;5114535;28;20431;-76
2021/07/12 08:25:32;;;;;;;6.27;5.77;;;;;;;21.42;69.53;98623.50;5114131;28;20908;-75
2021/07/12 08:27:59;;;;;;;5.03;4.60;;;;;;;21.67;68.54;98626.06;5113706;28;20437;-76
2021/07/12 08:30:26;;;;;;;4.60;4.23;;;;;;;22.10;66.79;98628.25;5114356;28;20899;-76
2021/07/12 08:32:52;;;;;;;5.60;4.50;;;;;;;22.25;65.47;98649.19;5113681;28;20524;-76
2021/07/12 08:35:19;;;;;;;6.10;4.57;;;;;;;22.37;65.24;98687.97;5114237;28;20460;-75
2021/07/12 08:37:50;;;;;;;4.70;4.30;;;;;;;22.42;64.16;98729.38;5114061;28;20429;-78
2021/07/12 08:40:18;;;;;;;4.80;4.40;;;;;;;22.72;63.54;98742.28;5107705;28;20984;-76
2021/07/12 08:42:45;;;;;;;5.07;3.73;;;;;;;23.05;62.52;98743.66;5113942;28;20436;-76
2021/07/12 08:45:13;;;;;;;3.90;3.60;;;;;;;23.17;61.72;98749.50;5114225;28;20939;-76
2021/07/12 08:47:40;;;;;;;5.87;5.27;;;;;;;23.40;61.14;98762.25;5114011;28;20854;-76
2021/07/12 08:50:07;;;;;;;22.47;5.20;;;;;;;22.73;62.74;98755.84;5105675;28;20926;-76
2021/07/12 08:52:34;;;;;;;4.90;4.40;;;;;;;23.05;62.58;98756.53;5113587;28;20432;-75
2021/07/12 08:55:05;;;;;;;4.43;3.20;;;;;;;23.14;60.85;98749.91;5113574;28;20446;-76
2021/07/12 08:57:32;;;;;;;5.20;4.10;;;;;;;23.21;60.96;98744.50;5113836;28;20447;-76
2021/07/12 08:59:58;;;;;;;5.20;4.70;;;;;;;23.17;61.35;98744.03;5113581;28;20444;-75
2021/07/12 09:02:25;;;;;;;5.10;4.17;;;;;;;22.87;62.02;98729.44;5113681;28;20506;-74
2021/07/12 09:04:53;;;;;;;4.90;4.20;;;;;;;22.71;62.56;98711.28;5112897;28;20468;-76
2021/07/12 09:07:22;;;;;;;4.97;4.57;;;;;;;22.19;65.00;98709.38;5113478;28;20523;-75
2021/07/12 09:09:58;;;;;;;6.60;5.53;;;;;;;22.24;66.22;98707.78;5113091;28;20505;-76
2021/07/12 09:12:40;;;;;;;6.47;5.77;;;;;;;22.51;65.23;98707.38;5113174;28;20469;-76
2021/07/12 09:15:08;;;;;;;4.67;4.27;;;;;;;22.69;64.37;98705.97;5113378;28;21191;-75
2021/07/12 09:17:37;;;;;;;6.67;4.97;;;;;;;22.90;63.83;98701.59;5113309;28;20439;-75
2021/07/12 09:20:07;;;;;;;4.23;3.93;;;;;;;22.79;63.98;98702.91;5112917;28;20472;-76
2021/07/12 09:22:37;;;;;;;4.60;4.17;;;;;;;22.83;63.96;98717.13;5112365;28;20512;-75
2021/07/12 09:25:07;;;;;;;4.33;3.93;;;;;;;22.15;66.39;98714.34;5112975;28;20523;-76
2021/07/12 09:27:38;;;;;;;4.40;4.00;;;;;;;22.74;64.56;98712.78;5112691;28;20433;-75
2021/07/12 09:30:07;;;;;;;5.00;4.53;;;;;;;22.86;64.51;98722.22;5112353;28;20425;-76
2021/07/12 09:32:35;;;;;;;4.63;4.23;;;;;;;22.82;64.15;98737.41;5112813;28;20532;-76
2021/07/12 09:35:08;;;;;;;5.50;5.00;;;;;;;22.56;65.38;98744.16;5112791;28;20894;-77
2021/07/12 09:37:35;;;;;;;6.20;4.50;;;;;;;22.77;65.37;98732.47;5113112;28;20921;-77
2021/07/12 09:40:04;;;;;;;7.60;4.70;;;;;;;23.04;63.09;98732.84;5113008;28;20790;-75
2021/07/12 09:42:32;;;;;;;9.47;4.27;;;;;;;23.10;63.60;98730.19;5112807;28;20440;-75
2021/07/12 09:45:02;;;;;;;4.70;4.30;;;;;;;22.99;64.26;98730.69;5112487;28;20817;-76
2021/07/12 09:47:31;;;;;;;4.87;4.40;;;;;;;23.01;64.63;98727.75;5112609;28;20843;-75
2021/07/12 09:50:04;;;;;;;9.27;5.10;;;;;;;22.55;66.56;98722.44;5112360;28;20774;-75
2021/07/12 09:52:38;;;;;;;6.93;5.40;;;;;;;22.97;65.53;98731.88;5105788;28;20452;-75
2021/07/12 09:55:06;;;;;;;9.30;8.40;;;;;;;23.08;65.28;98739.66;5112606;28;20899;-75
2021/07/12 09:57:33;;;;;;;5.37;4.63;;;;;;;22.92;65.62;98745.34;5112503;28;20444;-74
2021/07/12 10:00:04;;;;;;;7.10;4.60;;;;;;;23.00;65.49;98751.63;5112134;28;20848;-75
2021/07/12 10:02:33;;;;;;;6.70;5.20;;;;;;;23.48;63.88;98759.44;5112107;28;20575;-75
2021/07/12 10:05:01;;;;;;;5.60;4.60;;;;;;;23.83;62.26;98757.72;5112118;28;20796;-75
2021/07/12 10:07:29;;;;;;;5.50;5.00;;;;;;;24.20;61.52;98769.53;5104373;28;20532;-76
2021/07/12 10:09:58;;;;;;;5.20;4.40;;;;;;;23.77;62.26;98777.75;5112152;28;20908;-76
2021/07/12 10:12:25;;;;;;;4.63;4.23;;;;;;;23.26;63.36;98775.81;5111584;28;20421;-75
2021/07/12 10:14:52;;;;;;;5.37;4.60;;;;;;;23.44;64.08;98793.81;5112404;28;20752;-75
2021/07/12 10:17:20;;;;;;;5.63;4.03;;;;;;;23.69;62.23;98792.44;5111899;28;20473;-76
2021/07/12 10:19:47;;;;;;;4.97;4.20;;;;;;;24.06;61.02;98785.06;5112071;28;20430;-76
2021/07/12 10:22:16;;;;;;;4.70;4.40;;;;;;;24.20;60.66;98776.94;5111761;28;20884;-75
2021/07/12 10:24:45;;;;;;;10.30;7.17;;;;;;;24.28;60.99;98782.28;5111924;28;20441;-77
2021/07/12 10:27:26;;;;;;;8.37;4.57;;;;;;;23.83;62.03;98776.97;5111244;28;20475;-76
2021/07/12 10:29:54;;;;;;;3.70;3.50;;;;;;;23.39;63.27;98775.16;5111858;28;20508;-74
2021/07/12 10:32:23;;;;;;;5.07;4.63;;;;;;;23.74;62.92;98775.34;5110877;28;20782;-74
2021/07/12 10:34:52;;;;;;;5.83;5.33;;;;;;;24.10;61.54;98778.09;5111530;28;20443;-75
2021/07/12 10:37:22;;;;;;;5.60;5.10;;;;;;;23.86;62.42;98768.34;5111205;28;20436;-73
2021/07/12 10:40:08;;;;;;;5.97;5.37;;;;;;;24.18;61.63;98763.38;5111758;28;21340;-75
2021/07/12 10:42:55;;;;;;;5.37;4.87;;;;;;;23.88;62.62;98759.91;5111630;28;20548;-74
2021/07/12 10:45:38;;;;;;;4.80;4.30;;;;;;;24.39;61.22;98756.16;5111548;28;20437;-75
2021/07/12 10:48:09;;;;;;;5.53;4.97;;;;;;;24.45;61.19;98747.97;5107529;28;20527;-74
2021/07/12 10:50:49;;;;;;;6.83;6.10;;;;;;;24.22;61.94;98748.19;5111760;28;20433;-74
2021/07/12 10:53:36;;;;;;;5.23;4.73;;;;;;;24.52;60.76;98754.41;5111100;28;20440;-73
2021/07/12 10:56:08;;;;;;;7.63;4.90;;;;;;;24.05;62.79;98760.50;5106019;28;20423;-75
2021/07/12 10:58:43;;;;;;;6.23;4.13;;;;;;;23.83;64.07;98754.13;5111085;28;20441;-75
2021/07/12 11:01:11;;;;;;;6.30;5.37;;;;;;;23.91;64.27;98748.53;5111640;28;20575;-75
2021/07/12 11:03:40;;;;;;;5.33;4.83;;;;;;;23.49;66.18;98742.75;5111353;28;20950;-75
2021/07/12 11:06:09;;;;;;;7.90;4.73;;;;;;;23.47;65.84;98738.47;5112088;28;20457;-75
2021/07/12 11:08:42;;;;;;;5.50;5.00;;;;;;;23.48;67.44;98731.94;5111432;28;20848;-76
2021/07/12 11:11:09;;;;;;;5.63;4.60;;;;;;;23.80;64.45;98727.91;5111401;28;20421;-75
2021/07/12 11:13:52;;;;;;;9.00;6.70;;;;;;;23.61;65.45;98734.00;5111166;28;20448;-76
2021/07/12 11:16:20;;;;;;;5.00;4.60;;;;;;;23.72;65.08;98728.84;5111644;28;20444;-75
2021/07/12 11:18:48;;;;;;;6.30;4.87;;;;;;;23.71;66.91;98718.03;5111412;28;20437;-74
2021/07/12 11:21:17;;;;;;;6.23;4.93;;;;;;;23.83;67.34;98708.25;5111015;28;20464;-74
2021/07/12 11:23:50;;;;;;;6.30;5.70;;;;;;;23.23;68.78;98693.00;5111177;28;20475;-73
2021/07/12 11:26:50;;;;;;;6.00;5.50;;;;;;;23.44;69.18;98676.53;5109906;28;20448;-74
2021/07/12 11:29:25;;;;;;;5.40;5.00;;;;;;;23.36;68.48;98679.41;5104481;28;20885;-73
2021/07/12 11:31:54;;;;;;;6.33;5.80;;;;;;;23.42;68.17;98675.88;5110768;28;20915;-74
2021/07/12 11:34:25;;;;;;;4.60;4.30;;;;;;;23.63;66.68;98657.72;5111067;28;20444;-75
2021/07/12 11:36:54;;;;;;;5.50;4.17;;;;;;;23.73;67.04;98655.50;5111243;28;20490;-75
2021/07/12 11:39:23;;;;;;;6.73;5.07;;;;;;;23.87;67.76;98653.75;5103174;28;20428;-75
2021/07/12 11:41:50;;;;;;;5.30;4.90;;;;;;;23.99;65.84;98652.16;5111158;28;20514;-74
2021/07/12 11:44:18;;;;;;;6.60;5.20;;;;;;;24.04;67.39;98655.19;5111442;28;20993;-75